sensor_id;sensor_type;location;lat;lon;timestamp;pressure;altitude;pressure_sealevel;temperature;humidity
47430;BME280;33181;49.246;7.372;2022-10-16T00:01:13;98571.84;;;16.05;100.00
47430;BME280;33181;49.246;7.372;2022-10-16T00:03:41;98577.28;;;16.03;100.00
47430;BME280;33181;49.246;7.372;2022-10-16T00:06:08;98580.44;;;15.98;100.00
47430;BME280;33181;49.246;7.372;2022-10-16T00:08:34;98578.75;;;15.97;100.00
47430;BME280;33181;49.246;7.372;2022-10-16T00:11:13;98574.94;;;15.92;100.00
47430;BME280;33181;49.246;7.372;2022-10-16T00:13:41;98564.00;;;15.95;100.00
47430;BME280;33181;49.246;7.372;2022-10-16T00:16:09;98562.19;;;15.87;100.00
47430;BME280;33181;49.246;7.372;2022-10-16T00:18:36;98573.94;;;15.85;100.00
47430;BME280;33181;49.246;7.372;2022-10-16T00:21:25;98573.44;;;15.81;100.00
47430;BME280;33181;49.246;7.372;2022-10-16T00:23:58;98577.91;;;15.81;100.00
47430;BME280;33181;49.246;7.372;2022-10-16T00:26:26;98574.44;;;15.80;100.00
47430;BME280;33181;49.246;7.372;2022-10-16T00:28:52;98569.47;;;15.77;100.00
47430;BME280;33181;49.246;7.372;2022-10-16T00:31:21;98566.13;;;15.75;100.00
47430;BME280;33181;49.246;7.372;2022-10-16T00:33:47;98562.81;;;15.73;100.00
47430;BME280;33181;49.246;7.372;2022-10-16T00:36:17;98563.47;;;15.67;100.00
47430;BME280;33181;49.246;7.372;2022-10-16T00:38:44;98563.75;;;15.64;100.00
47430;BME280;33181;49.246;7.372;2022-10-16T00:41:16;98562.25;;;15.61;100.00
47430;BME280;33181;49.246;7.372;2022-10-16T00:43:55;98555.28;;;15.60;100.00
47430;BME280;33181;49.246;7.372;2022-10-16T00:46:41;98557.59;;;15.55;100.00
47430;BME280;33181;49.246;7.372;2022-10-16T00:49:16;98555.78;;;15.56;100.00
47430;BME280;33181;49.246;7.372;2022-10-16T00:51:46;98558.25;;;15.57;100.00
47430;BME280;33181;49.246;7.372;2022-10-16T00:54:23;98548.66;;;15.56;100.00
47430;BME280;33181;49.246;7.372;2022-10-16T00:56:50;98564.53;;;15.56;100.00
47430;BME280;33181;49.246;7.372;2022-10-16T00:59:26;98570.66;;;15.57;100.00
47430;BME280;33181;49.246;7.372;2022-10-16T01:01:54;98583.59;;;15.60;100.00
47430;BME280;33181;49.246;7.372;2022-10-16T01:04:21;98580.13;;;15.59;100.00
47430;BME280;33181;49.246;7.372;2022-10-16T01:12:57;98579.28;;;15.59;100.00
47430;BME280;33181;49.246;7.372;2022-10-16T01:15:42;98581.25;;;15.57;100.00
47430;BME280;33181;49.246;7.372;2022-10-16T01:18:28;98583.72;;;15.50;100.00
47430;BME280;33181;49.246;7.372;2022-10-16T01:29:56;98589.38;;;15.55;100.00
47430;BME280;33181;49.246;7.372;2022-10-16T01:32:40;98590.19;;;15.56;100.00
47430;BME280;33181;49.246;7.372;2022-10-16T01:35:27;98586.88;;;15.53;100.00
47430;BME280;33181;49.246;7.372;2022-10-16T01:40:41;98594.19;;;15.60;100.00
47430;BME280;33181;49.246;7.372;2022-10-16T01:43:15;98590.38;;;15.62;100.00
47430;BME280;33181;49.246;7.372;2022-10-16T01:45:44;98588.75;;;15.61;100.00
47430;BME280;33181;49.246;7.372;2022-10-16T01:48:13;98583.25;;;15.63;100.00
47430;BME280;33181;49.246;7.372;2022-10-16T01:50:44;98590.38;;;15.62;100.00
47430;BME280;33181;49.246;7.372;2022-10-16T01:53:12;98590.88;;;15.66;100.00
47430;BME280;33181;49.246;7.372;2022-10-16T01:55:43;98584.78;;;15.65;100.00
47430;BME280;33181;49.246;7.372;2022-10-16T01:58:13;98591.72;;;15.66;100.00
47430;BME280;33181;49.246;7.372;2022-10-16T02:00:42;98593.53;;;15.66;100.00
47430;BME280;33181;49.246;7.372;2022-10-16T02:03:11;98601.47;;;15.66;100.00
47430;BME280;33181;49.246;7.372;2022-10-16T02:05:55;98600.28;;;15.60;100.00
47430;BME280;33181;49.246;7.372;2022-10-16T02:08:24;98597.31;;;15.63;100.00
47430;BME280;33181;49.246;7.372;2022-10-16T02:10:55;98599.47;;;15.60;100.00
47430;BME280;33181;49.246;7.372;2022-10-16T02:13:39;98608.56;;;15.57;100.00
47430;BME280;33181;49.246;7.372;2022-10-16T02:16:09;98613.38;;;15.62;100.00
47430;BME280;33181;49.246;7.372;2022-10-16T02:18:35;98619.19;;;15.65;100.00
47430;BME280;33181;49.246;7.372;2022-10-16T02:21:19;98619.19;;;15.65;100.00
47430;BME280;33181;49.246;7.372;2022-10-16T02:26:52;98618.19;;;15.66;100.00
47430;BME280;33181;49.246;7.372;2022-10-16T02:29:26;98610.13;;;15.68;100.00
47430;BME280;33181;49.246;7.372;2022-10-16T02:31:58;98610.13;;;15.68;100.00
47430;BME280;33181;49.246;7.372;2022-10-16T02:34:26;98616.44;;;15.67;100.00
47430;BME280;33181;49.246;7.372;2022-10-16T02:36:54;98612.25;;;15.64;100.00
47430;BME280;33181;49.246;7.372;2022-10-16T02:39:21;98619.38;;;15.64;100.00
47430;BME280;33181;49.246;7.372;2022-10-16T02:41:48;98609.75;;;15.63;100.00
47430;BME280;33181;49.246;7.372;2022-10-16T02:44:13;98606.78;;;15.66;100.00
47430;BME280;33181;49.246;7.372;2022-10-16T02:46:39;98611.25;;;15.65;100.00
47430;BME280;33181;49.246;7.372;2022-10-16T02:49:05;98619.91;;;15.67;100.00
47430;BME280;33181;49.246;7.372;2022-10-16T02:51:30;98621.16;;;15.63;100.00
47430;BME280;33181;49.246;7.372;2022-10-16T02:53:56;98623.47;;;15.58;100.00
47430;BME280;33181;49.246;7.372;2022-10-16T02:56:22;98619.81;;;15.59;100.00
47430;BME280;33181;49.246;7.372;2022-10-16T02:58:48;98618.00;;;15.60;100.00
47430;BME280;33181;49.246;7.372;2022-10-16T03:01:13;98623.47;;;15.58;100.00
47430;BME280;33181;49.246;7.372;2022-10-16T03:03:42;98628.25;;;15.55;100.00
47430;BME280;33181;49.246;7.372;2022-10-16T03:06:08;98615.47;;;15.50;100.00
47430;BME280;33181;49.246;7.372;2022-10-16T03:08:34;98614.34;;;15.52;100.00
47430;BME280;33181;49.246;7.372;2022-10-16T03:10:59;98621.16;;;15.55;100.00
47430;BME280;33181;49.246;7.372;2022-10-16T03:13:25;98617.81;;;15.53;100.00
47430;BME280;33181;49.246;7.372;2022-10-16T03:15:51;98620.47;;;15.53;100.00
47430;BME280;33181;49.246;7.372;2022-10-16T03:18:16;98620.97;;;15.57;100.00
47430;BME280;33181;49.246;7.372;2022-10-16T03:20:43;98614.50;;;15.51;100.00
47430;BME280;33181;49.246;7.372;2022-10-16T03:23:09;98609.22;;;15.51;100.00
47430;BME280;33181;49.246;7.372;2022-10-16T03:25:35;98610.03;;;15.51;100.00
47430;BME280;33181;49.246;7.372;2022-10-16T03:28:00;98614.84;;;15.56;100.00
47430;BME280;33181;49.246;7.372;2022-10-16T03:30:26;98617.50;;;15.56;100.00
47430;BME280;33181;49.246;7.372;2022-10-16T03:32:52;98612.72;;;15.60;100.00
47430;BME280;33181;49.246;7.372;2022-10-16T03:35:21;98614.22;;;15.62;100.00
47430;BME280;33181;49.246;7.372;2022-10-16T03:37:48;98614.06;;;15.64;100.00
47430;BME280;33181;49.246;7.372;2022-10-16T03:40:14;98628.78;;;15.66;100.00
47430;BME280;33181;49.246;7.372;2022-10-16T03:42:42;98628.13;;;15.64;100.00
47430;BME280;33181;49.246;7.372;2022-10-16T03:45:08;98613.38;;;15.62;100.00
47430;BME280;33181;49.246;7.372;2022-10-16T03:47:34;98601.47;;;15.58;100.00
47430;BME280;33181;49.246;7.372;2022-10-16T03:50:00;98608.22;;;15.52;100.00
47430;BME280;33181;49.246;7.372;2022-10-16T03:52:26;98605.56;;;15.52;100.00
47430;BME280;33181;49.246;7.372;2022-10-16T03:54:51;98601.28;;;15.51;100.00
47430;BME280;33181;49.246;7.372;2022-10-16T03:57:17;98610.88;;;15.52;100.00
47430;BME280;33181;49.246;7.372;2022-10-16T03:59:43;98622.28;;;15.52;100.00
47430;BME280;33181;49.246;7.372;2022-10-16T04:02:09;98622.28;;;15.52;100.00
47430;BME280;33181;49.246;7.372;2022-10-16T04:04:35;98623.09;;;15.53;100.00
47430;BME280;33181;49.246;7.372;2022-10-16T04:07:01;98621.59;;;15.50;100.00
47430;BME280;33181;49.246;7.372;2022-10-16T04:09:27;98619.81;;;15.51;100.00
47430;BME280;33181;49.246;7.372;2022-10-16T04:11:53;98624.25;;;15.50;100.00
47430;BME280;33181;49.246;7.372;2022-10-16T04:14:19;98619.16;;;15.57;100.00
47430;BME280;33181;49.246;7.372;2022-10-16T04:16:44;98608.84;;;15.46;100.00
47430;BME280;33181;49.246;7.372;2022-10-16T04:19:11;98602.06;;;15.43;100.00
47430;BME280;33181;49.246;7.372;2022-10-16T04:21:36;98604.88;;;15.42;100.00
47430;BME280;33181;49.246;7.372;2022-10-16T04:24:02;98603.19;;;15.41;100.00
47430;BME280;33181;49.246;7.372;2022-10-16T04:26:29;98607.66;;;15.40;100.00
47430;BME280;33181;49.246;7.372;2022-10-16T04:28:54;98608.97;;;15.36;100.00
47430;BME280;33181;49.246;7.372;2022-10-16T04:31:20;98604.19;;;15.40;100.00
47430;BME280;33181;49.246;7.372;2022-10-16T04:33:46;98618.41;;;15.39;100.00
47430;BME280;33181;49.246;7.372;2022-10-16T04:36:12;98620.22;;;15.38;100.00
47430;BME280;33181;49.246;7.372;2022-10-16T04:38:38;98621.22;;;15.37;100.00
47430;BME280;33181;49.246;7.372;2022-10-16T04:41:06;98626.38;;;15.39;100.00
47430;BME280;33181;49.246;7.372;2022-10-16T04:43:33;98631.66;;;15.39;100.00
47430;BME280;33181;49.246;7.372;2022-10-16T04:45:59;98652.66;;;15.40;100.00
47430;BME280;33181;49.246;7.372;2022-10-16T04:48:25;98645.53;;;15.41;100.00
47430;BME280;33181;49.246;7.372;2022-10-16T04:50:50;98637.78;;;15.39;100.00
47430;BME280;33181;49.246;7.372;2022-10-16T04:53:16;98634.31;;;15.39;100.00
47430;BME280;33181;49.246;7.372;2022-10-16T04:55:42;98621.00;;;15.30;100.00
47430;BME280;33181;49.246;7.372;2022-10-16T04:58:08;98608.78;;;15.29;100.00
47430;BME280;33181;49.246;7.372;2022-10-16T05:00:35;98606.91;;;15.22;100.00
47430;BME280;33181;49.246;7.372;2022-10-16T05:03:01;98611.06;;;15.24;100.00
47430;BME280;33181;49.246;7.372;2022-10-16T05:05:27;98625.09;;;15.25;100.00
47430;BME280;33181;49.246;7.372;2022-10-16T05:07:53;98641.97;;;15.24;100.00
47430;BME280;33181;49.246;7.372;2022-10-16T05:10:20;98645.75;;;15.21;100.00
47430;BME280;33181;49.246;7.372;2022-10-16T05:12:46;98640.47;;;15.21;100.00
47430;BME280;33181;49.246;7.372;2022-10-16T05:15:12;98648.28;;;15.23;100.00
47430;BME280;33181;49.246;7.372;2022-10-16T05:17:38;98639.97;;;15.18;100.00
47430;BME280;33181;49.246;7.372;2022-10-16T05:20:04;98635.09;;;15.05;100.00
47430;BME280;33181;49.246;7.372;2022-10-16T05:22:30;98635.09;;;15.05;100.00
47430;BME280;33181;49.246;7.372;2022-10-16T05:24:56;98634.59;;;15.10;100.00
47430;BME280;33181;49.246;7.372;2022-10-16T05:27:22;98634.59;;;15.10;100.00
47430;BME280;33181;49.246;7.372;2022-10-16T05:29:48;98637.78;;;15.13;100.00
47430;BME280;33181;49.246;7.372;2022-10-16T05:32:16;98637.44;;;15.16;100.00
47430;BME280;33181;49.246;7.372;2022-10-16T05:34:42;98637.44;;;15.16;100.00
47430;BME280;33181;49.246;7.372;2022-10-16T05:37:08;98645.72;;;15.13;100.00
47430;BME280;33181;49.246;7.372;2022-10-16T05:39:33;98650.34;;;15.11;100.00
47430;BME280;33181;49.246;7.372;2022-10-16T05:41:59;98656.06;;;15.06;100.00
47430;BME280;33181;49.246;7.372;2022-10-16T05:44:25;98644.34;;;15.09;100.00
47430;BME280;33181;49.246;7.372;2022-10-16T05:46:51;98656.44;;;15.12;100.00
47430;BME280;33181;49.246;7.372;2022-10-16T05:49:16;98665.06;;;15.14;100.00
47430;BME280;33181;49.246;7.372;2022-10-16T05:51:42;98664.25;;;15.13;100.00
47430;BME280;33181;49.246;7.372;2022-10-16T05:54:08;98648.38;;;15.13;100.00
47430;BME280;33181;49.246;7.372;2022-10-16T05:56:34;98657.44;;;15.11;100.00
47430;BME280;33181;49.246;7.372;2022-10-16T05:59:00;98658.28;;;15.11;100.00
47430;BME280;33181;49.246;7.372;2022-10-16T06:01:25;98674.16;;;15.11;100.00
47430;BME280;33181;49.246;7.372;2022-10-16T06:03:52;98676.47;;;15.14;100.00
47430;BME280;33181;49.246;7.372;2022-10-16T06:06:22;98675.34;;;15.17;100.00
47430;BME280;33181;49.246;7.372;2022-10-16T06:08:49;98686.28;;;15.22;100.00
47430;BME280;33181;49.246;7.372;2022-10-16T06:11:27;98681.00;;;15.22;100.00
47430;BME280;33181;49.246;7.372;2022-10-16T06:13:57;98679.47;;;15.19;100.00
47430;BME280;33181;49.246;7.372;2022-10-16T06:16:25;98679.47;;;15.19;100.00
47430;BME280;33181;49.246;7.372;2022-10-16T06:18:52;98670.72;;;15.19;100.00
47430;BME280;33181;49.246;7.372;2022-10-16T06:21:21;98669.75;;;15.20;100.00
47430;BME280;33181;49.246;7.372;2022-10-16T06:23:48;98669.59;;;15.21;100.00
47430;BME280;33181;49.246;7.372;2022-10-16T06:26:17;98662.13;;;15.17;100.00
47430;BME280;33181;49.246;7.372;2022-10-16T06:28:43;98669.88;;;15.18;100.00
47430;BME280;33181;49.246;7.372;2022-10-16T06:31:11;98669.59;;;15.21;100.00
47430;BME280;33181;49.246;7.372;2022-10-16T06:33:38;98684.31;;;15.24;100.00
47430;BME280;33181;49.246;7.372;2022-10-16T06:36:11;98689.13;;;15.28;100.00
47430;BME280;33181;49.246;7.372;2022-10-16T06:38:38;98688.81;;;15.32;100.00
47430;BME280;33181;49.246;7.372;2022-10-16T06:41:05;98696.84;;;15.40;100.00
47430;BME280;33181;49.246;7.372;2022-10-16T06:43:32;98692.06;;;15.43;100.00
47430;BME280;33181;49.246;7.372;2022-10-16T06:45:59;98691.59;;;15.48;100.00
47430;BME280;33181;49.246;7.372;2022-10-16T06:48:26;98693.94;;;15.51;100.00
47430;BME280;33181;49.246;7.372;2022-10-16T06:51:00;98698.88;;;15.54;100.00
47430;BME280;33181;49.246;7.372;2022-10-16T06:53:29;98697.13;;;15.63;100.00
47430;BME280;33181;49.246;7.372;2022-10-16T06:55:56;98701.69;;;15.70;100.00
47430;BME280;33181;49.246;7.372;2022-10-16T06:58:22;98703.38;;;15.80;100.00
47430;BME280;33181;49.246;7.372;2022-10-16T07:00:48;98713.34;;;15.86;100.00
47430;BME280;33181;49.246;7.372;2022-10-16T07:03:15;98721.31;;;15.94;100.00
47430;BME280;33181;49.246;7.372;2022-10-16T07:05:43;98730.25;;;15.93;100.00
47430;BME280;33181;49.246;7.372;2022-10-16T07:08:09;98723.94;;;15.86;100.00
47430;BME280;33181;49.246;7.372;2022-10-16T07:10:35;98726.03;;;15.74;100.00
47430;BME280;33181;49.246;7.372;2022-10-16T07:13:02;98723.84;;;15.69;100.00
47430;BME280;33181;49.246;7.372;2022-10-16T07:15:28;98727.38;;;15.78;100.00
47430;BME280;33181;49.246;7.372;2022-10-16T07:17:54;98736.50;;;15.84;100.00
47430;BME280;33181;49.246;7.372;2022-10-16T07:20:20;98743.94;;;15.80;100.00
47430;BME280;33181;49.246;7.372;2022-10-16T07:22:45;98744.28;;;15.85;100.00
47430;BME280;33181;49.246;7.372;2022-10-16T07:25:11;98731.91;;;15.86;100.00
47430;BME280;33181;49.246;7.372;2022-10-16T07:27:38;98747.81;;;15.94;100.00
47430;BME280;33181;49.246;7.372;2022-10-16T07:30:05;98763.09;;;16.00;100.00
47430;BME280;33181;49.246;7.372;2022-10-16T07:32:31;98770.41;;;16.06;100.00
47430;BME280;33181;49.246;7.372;2022-10-16T07:34:57;98778.72;;;16.11;100.00
47430;BME280;33181;49.246;7.372;2022-10-16T07:37:23;98781.88;;;16.15;100.00
47430;BME280;33181;49.246;7.372;2022-10-16T07:39:49;98779.25;;;16.23;100.00
47430;BME280;33181;49.246;7.372;2022-10-16T07:42:14;98791.84;;;16.21;100.00
47430;BME280;33181;49.246;7.372;2022-10-16T07:44:40;98801.81;;;16.27;100.00
47430;BME280;33181;49.246;7.372;2022-10-16T07:47:07;98791.88;;;16.29;100.00
47430;BME280;33181;49.246;7.372;2022-10-16T07:49:32;98798.66;;;16.32;100.00
47430;BME280;33181;49.246;7.372;2022-10-16T07:51:58;98804.66;;;16.34;100.00
47430;BME280;33181;49.246;7.372;2022-10-16T07:54:24;98804.34;;;16.45;100.00
47430;BME280;33181;49.246;7.372;2022-10-16T07:56:49;98812.41;;;16.27;100.00
47430;BME280;33181;49.246;7.372;2022-10-16T07:59:15;98813.94;;;16.38;100.00
47430;BME280;33181;49.246;7.372;2022-10-16T08:01:41;98819.25;;;16.38;100.00
47430;BME280;33181;49.246;7.372;2022-10-16T08:04:10;98832.56;;;16.46;100.00
47430;BME280;33181;49.246;7.372;2022-10-16T08:06:40;98838.22;;;16.59;100.00
47430;BME280;33181;49.246;7.372;2022-10-16T08:09:07;98835.28;;;16.71;100.00
47430;BME280;33181;49.246;7.372;2022-10-16T08:11:33;98832.19;;;16.83;100.00
47430;BME280;33181;49.246;7.372;2022-10-16T08:13:59;98835.38;;;16.95;100.00
47430;BME280;33181;49.246;7.372;2022-10-16T08:16:25;98825.44;;;17.05;100.00
47430;BME280;33181;49.246;7.372;2022-10-16T08:18:51;98833.09;;;17.17;100.00
47430;BME280;33181;49.246;7.372;2022-10-16T08:21:20;98830.13;;;17.20;100.00
47430;BME280;33181;49.246;7.372;2022-10-16T08:23:49;98841.91;;;17.33;100.00
47430;BME280;33181;49.246;7.372;2022-10-16T08:26:15;98847.06;;;17.51;100.00
47430;BME280;33181;49.246;7.372;2022-10-16T08:28:41;98847.75;;;17.70;100.00
47430;BME280;33181;49.246;7.372;2022-10-16T08:31:15;98845.09;;;17.94;100.00
47430;BME280;33181;49.246;7.372;2022-10-16T08:33:43;98849.22;;;17.97;100.00
47430;BME280;33181;49.246;7.372;2022-10-16T08:36:11;98851.06;;;18.04;100.00
47430;BME280;33181;49.246;7.372;2022-10-16T08:38:37;98846.38;;;18.15;100.00
47430;BME280;33181;49.246;7.372;2022-10-16T08:41:54;98857.84;;;18.15;100.00
47430;BME280;33181;49.246;7.372;2022-10-16T08:44:42;98852.16;;;18.26;100.00
47430;BME280;33181;49.246;7.372;2022-10-16T08:50:13;98856.53;;;18.67;99.45
47430;BME280;33181;49.246;7.372;2022-10-16T08:52:43;98861.59;;;18.85;98.57
47430;BME280;33181;49.246;7.372;2022-10-16T08:55:49;98870.38;;;18.93;96.75
47430;BME280;33181;49.246;7.372;2022-10-16T08:58:22;98871.66;;;19.06;96.50
47430;BME280;33181;49.246;7.372;2022-10-16T09:01:01;98864.38;;;19.22;94.00
47430;BME280;33181;49.246;7.372;2022-10-16T09:13:58;98884.13;;;19.82;92.12
47430;BME280;33181;49.246;7.372;2022-10-16T09:16:33;98875.63;;;19.87;92.16
47430;BME280;33181;49.246;7.372;2022-10-16T09:21:44;98884.84;;;20.14;88.87
47430;BME280;33181;49.246;7.372;2022-10-16T09:24:16;98885.41;;;20.39;87.21
47430;BME280;33181;49.246;7.372;2022-10-16T09:26:43;98893.09;;;20.57;83.42
47430;BME280;33181;49.246;7.372;2022-10-16T09:29:20;98900.09;;;20.58;84.88
47430;BME280;33181;49.246;7.372;2022-10-16T09:31:47;98894.84;;;20.65;84.91
47430;BME280;33181;49.246;7.372;2022-10-16T09:34:34;98894.47;;;20.82;85.02
47430;BME280;33181;49.246;7.372;2022-10-16T09:37:05;98892.53;;;20.91;84.38
47430;BME280;33181;49.246;7.372;2022-10-16T09:39:52;98895.47;;;20.81;82.20
47430;BME280;33181;49.246;7.372;2022-10-16T09:42:24;98893.56;;;20.75;81.91
47430;BME280;33181;49.246;7.372;2022-10-16T09:44:53;98890.50;;;20.64;84.37
47430;BME280;33181;49.246;7.372;2022-10-16T09:47:27;98895.69;;;20.65;83.90
47430;BME280;33181;49.246;7.372;2022-10-16T09:49:59;98904.69;;;20.64;84.76
47430;BME280;33181;49.246;7.372;2022-10-16T09:52:28;98897.69;;;20.63;83.69
47430;BME280;33181;49.246;7.372;2022-10-16T09:54:57;98899.47;;;20.56;82.25
47430;BME280;33181;49.246;7.372;2022-10-16T09:57:24;98908.25;;;20.42;82.09
47430;BME280;33181;49.246;7.372;2022-10-16T09:59:53;98909.53;;;20.31;83.02
47430;BME280;33181;49.246;7.372;2022-10-16T10:02:43;98905.91;;;20.24;84.44
47430;BME280;33181;49.246;7.372;2022-10-16T10:05:26;98903.75;;;20.27;84.91
47430;BME280;33181;49.246;7.372;2022-10-16T10:07:59;98904.78;;;20.71;83.94
47430;BME280;33181;49.246;7.372;2022-10-16T10:10:30;98902.81;;;21.09;82.91
47430;BME280;33181;49.246;7.372;2022-10-16T10:12:56;98903.19;;;21.27;81.43
47430;BME280;33181;49.246;7.372;2022-10-16T10:15:23;98908.69;;;21.56;80.82
47430;BME280;33181;49.246;7.372;2022-10-16T10:17:54;98908.22;;;21.95;78.98
47430;BME280;33181;49.246;7.372;2022-10-16T10:20:33;98906.44;;;22.02;79.22
47430;BME280;33181;49.246;7.372;2022-10-16T10:23:01;98913.41;;;22.03;78.02
47430;BME280;33181;49.246;7.372;2022-10-16T10:29:04;98922.22;;;21.97;76.38
47430;BME280;33181;49.246;7.372;2022-10-16T10:32:18;98921.53;;;21.88;76.43
47430;BME280;33181;49.246;7.372;2022-10-16T10:35:14;98914.66;;;21.79;76.88
47430;BME280;33181;49.246;7.372;2022-10-16T10:44:16;98930.38;;;22.10;75.31
47430;BME280;33181;49.246;7.372;2022-10-16T10:47:01;98934.34;;;21.93;75.78
47430;BME280;33181;49.246;7.372;2022-10-16T11:04:57;98934.00;;;21.38;79.42
47430;BME280;33181;49.246;7.372;2022-10-16T11:07:30;98940.25;;;21.45;81.35
47430;BME280;33181;49.246;7.372;2022-10-16T11:10:13;98926.50;;;21.48;79.51
47430;BME280;33181;49.246;7.372;2022-10-16T11:12:44;98928.19;;;21.35;82.01
47430;BME280;33181;49.246;7.372;2022-10-16T11:15:19;98918.84;;;21.45;80.95
47430;BME280;33181;49.246;7.372;2022-10-16T11:18:16;98922.03;;;21.56;79.32
47430;BME280;33181;49.246;7.372;2022-10-16T11:20:51;98921.09;;;21.63;78.71
47430;BME280;33181;49.246;7.372;2022-10-16T11:26:21;98923.72;;;21.57;78.85
47430;BME280;33181;49.246;7.372;2022-10-16T11:28:54;98919.81;;;21.38;79.27
47430;BME280;33181;49.246;7.372;2022-10-16T11:31:55;98921.47;;;21.24;80.14
47430;BME280;33181;49.246;7.372;2022-10-16T11:37:41;98912.16;;;21.20;82.46
47430;BME280;33181;49.246;7.372;2022-10-16T11:40:31;98910.25;;;21.14;83.03
47430;BME280;33181;49.246;7.372;2022-10-16T11:45:45;98911.66;;;21.31;83.17
47430;BME280;33181;49.246;7.372;2022-10-16T11:48:41;98906.44;;;21.38;82.93
47430;BME280;33181;49.246;7.372;2022-10-16T11:51:20;98907.28;;;21.60;81.65
47430;BME280;33181;49.246;7.372;2022-10-16T11:54:04;98908.34;;;21.65;80.16
47430;BME280;33181;49.246;7.372;2022-10-16T11:56:32;98902.63;;;21.68;78.76
47430;BME280;33181;49.246;7.372;2022-10-16T11:59:44;98898.28;;;21.46;80.72
47430;BME280;33181;49.246;7.372;2022-10-16T12:02:57;98905.13;;;21.34;80.72
47430;BME280;33181;49.246;7.372;2022-10-16T12:06:00;98899.50;;;21.43;81.18
47430;BME280;33181;49.246;7.372;2022-10-16T12:08:30;98889.97;;;21.56;80.56
47430;BME280;33181;49.246;7.372;2022-10-16T12:11:34;98897.59;;;21.37;80.30
47430;BME280;33181;49.246;7.372;2022-10-16T12:14:43;98900.72;;;21.41;80.98
47430;BME280;33181;49.246;7.372;2022-10-16T12:20:12;98905.63;;;21.22;79.98
47430;BME280;33181;49.246;7.372;2022-10-16T12:22:56;98906.09;;;21.11;79.97
47430;BME280;33181;49.246;7.372;2022-10-16T12:25:37;98916.91;;;21.03;81.03
47430;BME280;33181;49.246;7.372;2022-10-16T12:28:21;98915.44;;;21.00;81.21
47430;BME280;33181;49.246;7.372;2022-10-16T12:31:02;98907.72;;;20.91;81.04
47430;BME280;33181;49.246;7.372;2022-10-16T12:33:30;98907.44;;;20.86;80.47
47430;BME280;33181;49.246;7.372;2022-10-16T12:36:00;98907.28;;;20.72;80.28
47430;BME280;33181;49.246;7.372;2022-10-16T12:38:49;98902.03;;;20.64;80.57
47430;BME280;33181;49.246;7.372;2022-10-16T12:41:35;98897.66;;;20.48;80.78
47430;BME280;33181;49.246;7.372;2022-10-16T12:44:03;98902.19;;;20.48;80.88
47430;BME280;33181;49.246;7.372;2022-10-16T12:51:53;98896.72;;;20.26;82.29
47430;BME280;33181;49.246;7.372;2022-10-16T12:54:29;98909.59;;;20.23;83.47
47430;BME280;33181;49.246;7.372;2022-10-16T13:05:22;98899.28;;;20.20;83.53
47430;BME280;33181;49.246;7.372;2022-10-16T13:20:15;98908.19;;;19.97;85.50
47430;BME280;33181;49.246;7.372;2022-10-16T13:25:55;98905.50;;;19.97;85.58
47430;BME280;33181;49.246;7.372;2022-10-16T13:28:30;98907.81;;;20.00;85.25
47430;BME280;33181;49.246;7.372;2022-10-16T13:30:59;98904.88;;;20.10;85.04
47430;BME280;33181;49.246;7.372;2022-10-16T13:33:42;98907.91;;;20.07;85.59
47430;BME280;33181;49.246;7.372;2022-10-16T13:36:23;98900.69;;;20.16;85.47
47430;BME280;33181;49.246;7.372;2022-10-16T13:39:28;98898.28;;;20.21;84.66
47430;BME280;33181;49.246;7.372;2022-10-16T13:42:07;98889.28;;;20.22;83.74
47430;BME280;33181;49.246;7.372;2022-10-16T13:44:53;98896.16;;;20.16;83.65
47430;BME280;33181;49.246;7.372;2022-10-16T13:47:28;98891.59;;;20.25;84.23
47430;BME280;33181;49.246;7.372;2022-10-16T13:50:13;98906.50;;;20.34;85.50
47430;BME280;33181;49.246;7.372;2022-10-16T13:52:39;98896.38;;;20.44;85.20
47430;BME280;33181;49.246;7.372;2022-10-16T13:55:14;98907.94;;;20.59;84.44
47430;BME280;33181;49.246;7.372;2022-10-16T13:57:41;98910.22;;;20.63;82.33
47430;BME280;33181;49.246;7.372;2022-10-16T14:00:26;98908.66;;;20.68;81.43
47430;BME280;33181;49.246;7.372;2022-10-16T14:03:13;98910.97;;;20.71;80.89
47430;BME280;33181;49.246;7.372;2022-10-16T14:08:17;98915.16;;;20.80;80.01
47430;BME280;33181;49.246;7.372;2022-10-16T14:10:47;98910.94;;;20.86;80.27
47430;BME280;33181;49.246;7.372;2022-10-16T14:13:18;98912.88;;;20.92;80.56
47430;BME280;33181;49.246;7.372;2022-10-16T14:15:48;98907.44;;;20.86;79.41
47430;BME280;33181;49.246;7.372;2022-10-16T14:18:24;98904.13;;;20.83;79.93
47430;BME280;33181;49.246;7.372;2022-10-16T14:20:51;98901.94;;;20.87;80.23
47430;BME280;33181;49.246;7.372;2022-10-16T14:23:31;98908.63;;;20.83;80.02
47430;BME280;33181;49.246;7.372;2022-10-16T14:28:39;98903.22;;;20.76;80.30
47430;BME280;33181;49.246;7.372;2022-10-16T14:31:30;98893.84;;;20.66;79.29
47430;BME280;33181;49.246;7.372;2022-10-16T14:33:56;98894.47;;;20.68;80.08
47430;BME280;33181;49.246;7.372;2022-10-16T14:36:24;98898.16;;;20.67;79.72
47430;BME280;33181;49.246;7.372;2022-10-16T14:39:17;98904.88;;;20.63;79.87
47430;BME280;33181;49.246;7.372;2022-10-16T14:41:48;98909.13;;;20.72;78.83
47430;BME280;33181;49.246;7.372;2022-10-16T14:44:14;98906.25;;;20.73;79.22
47430;BME280;33181;49.246;7.372;2022-10-16T14:46:43;98904.13;;;20.83;79.24
47430;BME280;33181;49.246;7.372;2022-10-16T14:51:36;98910.91;;;21.01;80.76
47430;BME280;33181;49.246;7.372;2022-10-16T14:54:03;98906.84;;;21.05;78.74
47430;BME280;33181;49.246;7.372;2022-10-16T14:56:53;98904.41;;;20.89;78.17
47430;BME280;33181;49.246;7.372;2022-10-16T14:59:28;98906.25;;;20.73;78.78
47430;BME280;33181;49.246;7.372;2022-10-16T15:01:56;98915.94;;;20.74;79.66
47430;BME280;33181;49.246;7.372;2022-10-16T15:04:22;98911.13;;;20.70;79.77
47430;BME280;33181;49.246;7.372;2022-10-16T15:06:47;98912.69;;;20.64;80.23